Latest Weather Observations for West Roebuck

IDW60801

Issued at 3:02 am WST Friday 28 August 2015 (issued every 30 minutes, with the page automatically refreshed every 10 minutes)

About weather observations | Map of weather stations | Latest weather observations for WA | Other Formats
Station Details ID: 003096 Name: WEST ROEBUCK Lat: -17.90 Lon: 122.31 Height: 32.0 m
Data from the previous 72 hours. | See also: Recent months at West Roebuck
Date/Time
WST
Temp
°C
App
Temp
°C
Dew
Point
Rel
Hum
%
Delta-T
°C
Wind Press
QNH
hPa
Press
MSL
hPa
Rain
since 9 am
mm
Dir
 
Spd
km/h
Gust
km/h
Spd
kts
Gust
kts
28/03:00am 19.7 - - - - SSW 7 9 4 5 - - 0.0
28/02:30am 19.9 - - - - SSW 9 9 5 5 - - 0.0
28/02:00am 19.1 - - - - SW 7 9 4 5 - - 0.0
28/01:30am 19.5 - - - - WSW 7 7 4 4 - - 0.0
28/01:00am 18.8 - - - - W 7 7 4 4 - - 0.0
28/12:30am 19.1 - - - - W 6 7 3 4 - - 0.0
28/12:00am 19.0 - - - - WSW 6 7 3 4 - - 0.0
 
Date/Time
WST
Temp
°C
App
Temp
°C
Dew
Point
Rel
Hum
%
Delta-T
°C
Wind Press
QNH
hPa
Press
MSL
hPa
Rain
since 9 am
mm
Dir
 
Spd
km/h
Gust
km/h
Spd
kts
Gust
kts
27/11:30pm 19.6 - - - - WSW 6 6 3 3 - - 0.0
27/11:00pm 19.6 - - - - WSW 6 6 3 3 - - 0.0
27/10:30pm 19.4 - - - - W 6 7 3 4 - - 0.0
27/10:00pm 20.3 - - - - WNW 7 9 4 5 - - 0.0
27/09:30pm 20.3 - - - - W 6 7 3 4 - - 0.0
27/09:00pm 21.3 - - - - W 6 6 3 3 - - 0.0
27/08:30pm 22.0 - - - - W 9 11 5 6 - - 0.0
27/08:00pm 22.5 - - - - W 9 13 5 7 - - 0.0
27/07:30pm 22.6 - - - - W 9 11 5 6 - - 0.0
27/07:00pm 23.1 - - - - W 11 15 6 8 - - 0.0
27/06:30pm 23.6 - - - - WNW 9 15 5 8 - - 0.0
27/06:00pm 24.2 - - - - W 13 20 7 11 - - 0.0
27/05:30pm 25.1 - - - - W 17 24 9 13 - - 0.0
27/05:00pm 26.5 - - - - W 19 24 10 13 - - 0.0
27/04:30pm 27.5 - - - - W 20 30 11 16 - - 0.0
27/04:00pm 28.3 - - - - W 24 32 13 17 - - 0.0
27/03:30pm 29.3 - - - - W 24 32 13 17 - - 0.0
27/03:00pm 29.9 - - - - W 22 32 12 17 - - 0.0
27/02:30pm 30.3 - - - - WSW 22 32 12 17 - - 0.0
27/02:00pm 31.2 - - - - WSW 20 28 11 15 - - 0.0
27/01:30pm 31.5 - - - - SW 20 28 11 15 - - 0.0
27/01:00pm 30.9 - - - - WSW 20 30 11 16 - - 0.0
27/12:30pm 31.9 - - - - W 17 24 9 13 - - 0.0
27/12:00pm 31.4 - - - - W 17 28 9 15 - - 0.0
27/11:30am 32.5 - - - - NW 11 19 6 10 - - 0.0
27/11:00am 31.8 - - - - NNW 9 17 5 9 - - 0.0
27/10:30am 31.2 - - - - SSE 9 17 5 9 - - 0.0
27/10:00am 30.7 - - - - SE 9 19 5 10 - - 0.0
27/09:30am 28.9 - - - - SE 11 19 6 10 - - 0.0
27/09:00am 27.4 - - - - SSE 11 19 6 10 - - 0.0
27/08:30am 24.6 - - - - ESE 9 13 5 7 - - 0.0
27/08:00am 22.6 - - - - E 6 7 3 4 - - 0.0
27/07:30am 20.4 - - - - ENE 7 11 4 6 - - 0.0
27/07:00am 18.7 - - - - ENE 7 9 4 5 - - 0.0
27/06:30am 17.9 - - - - ENE 7 9 4 5 - - 0.0
27/06:00am 17.8 - - - - E 9 9 5 5 - - 0.0
27/05:30am 17.6 - - - - E 7 11 4 6 - - 0.0
27/05:00am 17.3 - - - - E 9 11 5 6 - - 0.0
27/04:30am 17.0 - - - - E 9 11 5 6 - - 0.0
27/04:00am 17.1 - - - - E 7 9 4 5 - - 0.0
27/03:30am 17.7 - - - - SE 7 9 4 5 - - 0.0
27/03:00am 18.4 - - - - SSE 11 13 6 7 - - 0.0
27/02:30am 17.8 - - - - ESE 7 9 4 5 - - 0.0
27/02:00am 17.9 - - - - ESE 9 11 5 6 - - 0.0
27/01:30am 17.9 - - - - CALM 0 6 0 3 - - 0.0
27/01:00am 19.6 - - - - CALM 0 0 0 0 - - 0.0
27/12:30am 19.0 - - - - CALM 0 0 0 0 - - 0.0
27/12:00am 20.0 - - - - WSW 6 6 3 3 - - 0.0
 
Date/Time
WST
Temp
°C
App
Temp
°C
Dew
Point
Rel
Hum
%
Delta-T
°C
Wind Press
QNH
hPa
Press
MSL
hPa
Rain
since 9 am
mm
Dir
 
Spd
km/h
Gust
km/h
Spd
kts
Gust
kts
26/11:30pm 20.0 - - - - NW 7 7 4 4 - - 0.0
26/11:00pm 20.0 - - - - NW 6 6 3 3 - - 0.0
26/10:30pm 20.2 - - - - NW 7 9 4 5 - - 0.0
26/10:00pm 19.8 - - - - WNW 7 9 4 5 - - 0.0
26/09:30pm 20.0 - - - - WNW 6 7 3 4 - - 0.0
26/09:00pm 20.2 - - - - WNW 9 9 5 5 - - 0.0
26/08:30pm 20.4 - - - - NW 7 7 4 4 - - 0.0
26/08:00pm 21.3 - - - - NW 7 9 4 5 - - 0.0
26/07:30pm 22.0 - - - - WNW 9 11 5 6 - - 0.0
26/07:00pm 22.7 - - - - WNW 9 11 5 6 - - 0.0
26/06:30pm 23.4 - - - - WNW 11 15 6 8 - - 0.0
26/06:00pm 23.9 - - - - WNW 11 17 6 9 - - 0.0
26/05:30pm 24.9 - - - - WNW 17 24 9 13 - - 0.0
26/05:00pm 26.4 - - - - WNW 19 30 10 16 - - 0.0
26/04:30pm 27.5 - - - - W 19 24 10 13 - - 0.0
26/04:00pm 28.3 - - - - WNW 20 30 11 16 - - 0.0
26/03:30pm 30.2 - - - - W 20 30 11 16 - - 0.0
26/03:00pm 31.4 - - - - W 19 28 10 15 - - 0.0
26/02:30pm 31.5 - - - - WNW 20 28 11 15 - - 0.0
26/02:00pm 32.8 - - - - WNW 22 33 12 18 - - 0.0
26/01:30pm 34.4 - - - - WSW 13 26 7 14 - - 0.0
26/01:00pm 34.1 - - - - N 11 19 6 10 - - 0.0
26/12:30pm 33.7 - - - - NNW 13 24 7 13 - - 0.0
26/12:00pm 32.9 - - - - NNW 11 19 6 10 - - 0.0
26/11:30am 32.7 - - - - NE 13 24 7 13 - - 0.0
26/11:00am 32.3 - - - - ENE 17 24 9 13 - - 0.0
26/10:30am 31.2 - - - - ENE 15 26 8 14 - - 0.0
26/10:00am 30.2 - - - - E 19 32 10 17 - - 0.0
26/09:30am 29.3 - - - - E 20 32 11 17 - - 0.0
26/09:00am 28.0 - - - - E 24 37 13 20 - - 0.0
26/08:30am 26.5 - - - - E 22 37 12 20 - - 0.0
26/08:00am 24.7 - - - - ENE 15 30 8 16 - - 0.0
26/07:30am 21.0 - - - - ENE 7 13 4 7 - - 0.0
26/07:00am 19.7 - - - - NNE 6 6 3 3 - - 0.0
26/06:30am 17.6 - - - - NNE 9 11 5 6 - - 0.0
26/06:00am 17.0 - - - - NNE 7 9 4 5 - - 0.0
26/05:30am 17.8 - - - - NNE 7 9 4 5 - - 0.0
26/05:00am 17.5 - - - - NNE 7 7 4 4 - - 0.0
26/04:30am 17.5 - - - - NNE 4 6 2 3 - - 0.0
26/04:00am 17.4 - - - - N 7 9 4 5 - - 0.0
26/03:30am 17.1 - - - - N 9 9 5 5 - - 0.0
26/03:00am 16.2 - - - - E 6 7 3 4 - - 0.0
26/02:30am 17.1 - - - - S 2 7 1 4 - - 0.0
26/02:00am 17.7 - - - - SW 7 13 4 7 - - 0.0
26/01:30am 17.9 - - - - NNW 7 9 4 5 - - 0.0
26/01:00am 17.9 - - - - NNW 7 9 4 5 - - 0.0
26/12:30am 17.8 - - - - N 6 9 3 5 - - 0.0
26/12:00am 18.3 - - - - NE 7 9 4 5 - - 0.0
 
Date/Time
WST
Temp
°C
App
Temp
°C
Dew
Point
Rel
Hum
%
Delta-T
°C
Wind Press
QNH
hPa
Press
MSL
hPa
Rain
since 9 am
mm
Dir
 
Spd
km/h
Gust
km/h
Spd
kts
Gust
kts
25/11:30pm 18.5 - - - - E 6 6 3 3 - - 0.0
25/11:00pm 19.6 - - - - N 7 9 4 5 - - 0.0
25/10:30pm 19.6 - - - - NNW 7 9 4 5 - - 0.0
25/10:00pm 19.5 - - - - WNW 6 7 3 4 - - 0.0
25/09:30pm 19.6 - - - - WNW 9 11 5 6 - - 0.0
25/09:00pm 19.6 - - - - W 9 11 5 6 - - 0.0
25/08:30pm 19.9 - - - - W 9 11 5 6 - - 0.0
25/08:00pm 21.2 - - - - WSW 9 11 5 6 - - 0.0
25/07:30pm 21.4 - - - - W 7 9 4 5 - - 0.0
25/07:00pm 21.8 - - - - WNW 9 9 5 5 - - 0.0
25/06:30pm 23.0 - - - - W 9 11 5 6 - - 0.0
25/06:00pm 24.0 - - - - W 11 15 6 8 - - 0.0
25/05:30pm 25.2 - - - - W 13 20 7 11 - - 0.0
25/05:00pm 26.7 - - - - W 19 24 10 13 - - 0.0
25/04:30pm 27.7 - - - - WNW 19 28 10 15 - - 0.0
25/04:00pm 29.0 - - - - W 20 32 11 17 - - 0.0
25/03:30pm 30.5 - - - - WNW 20 28 11 15 - - 0.0
25/03:00pm 31.7 - - - - NW 19 28 10 15 - - 0.0
25/02:30pm 32.0 - - - - NW 20 32 11 17 - - 0.0
25/02:00pm 32.8 - - - - NW 20 30 11 16 - - 0.0
25/01:30pm 33.3 - - - - WNW 20 30 11 16 - - 0.0
25/01:00pm 33.8 - - - - NW 20 30 11 16 - - 0.0
25/12:30pm 34.6 - - - - NW 13 26 7 14 - - 0.0
25/12:00pm 33.2 - - - - N 11 24 6 13 - - 0.0
25/11:30am 32.9 - - - - NE 11 19 6 10 - - 0.0
25/11:00am 32.6 - - - - NE 9 17 5 9 - - 0.0
25/10:30am 32.3 - - - - E 11 24 6 13 - - 0.0
25/10:00am 31.1 - - - - E 13 24 7 13 - - 0.0
25/09:30am 29.6 - - - - E 11 17 6 9 - - 0.0
25/09:00am 28.1 - - - - E 13 19 7 10 - - 0.0
25/08:30am 25.4 - - - - ESE 11 17 6 9 - - 0.0
25/08:00am 22.6 - - - - SE 11 15 6 8 - - 0.0
25/07:30am 20.1 - - - - SE 7 11 4 6 - - 0.0
25/07:00am 19.1 - - - - CALM 0 0 0 0 - - 0.0
25/06:30am 16.5 - - - - CALM 0 0 0 0 - - 0.0
25/06:00am 16.2 - - - - CALM 0 2 0 1 - - 0.0
25/05:30am 16.1 - - - - WSW 6 6 3 3 - - 0.0
25/05:00am 16.2 - - - - CALM 0 0 0 0 - - 0.0
25/04:30am 15.7 - - - - SSE 6 6 3 3 - - 0.0
25/04:00am 17.0 - - - - SE 7 7 4 4 - - 0.0
25/03:30am 16.6 - - - - SSE 7 9 4 5 - - 0.0

Other Formats:

Comma delimited format used in spreadsheet applications
http://www.bom.gov.au/fwo/IDW60801/IDW60801.95204.axf

JavaScript Object Notation format (JSON) in row-major order
http://www.bom.gov.au/fwo/IDW60801/IDW60801.95204.json